sensor_id;sensor_type;location;lat;lon;timestamp;P1;durP1;ratioP1;P2;durP2;ratioP2
73980;SDS011;62348;51.412;5.436;2023-07-08T00:00:00;4.85;;;3.15;;
73980;SDS011;62348;51.412;5.436;2023-07-08T00:02:29;4.70;;;3.10;;
73980;SDS011;62348;51.412;5.436;2023-07-08T00:04:55;5.35;;;3.47;;
73980;SDS011;62348;51.412;5.436;2023-07-08T00:07:20;3.75;;;3.35;;
73980;SDS011;62348;51.412;5.436;2023-07-08T00:09:46;5.00;;;3.05;;
73980;SDS011;62348;51.412;5.436;2023-07-08T00:12:12;4.75;;;3.45;;
73980;SDS011;62348;51.412;5.436;2023-07-08T00:14:37;3.88;;;3.10;;
73980;SDS011;62348;51.412;5.436;2023-07-08T00:17:04;6.40;;;3.20;;
73980;SDS011;62348;51.412;5.436;2023-07-08T00:22:01;6.30;;;2.97;;
73980;SDS011;62348;51.412;5.436;2023-07-08T00:24:27;8.48;;;3.20;;
73980;SDS011;62348;51.412;5.436;2023-07-08T00:26:52;4.63;;;3.50;;
73980;SDS011;62348;51.412;5.436;2023-07-08T00:29:18;6.13;;;3.67;;
73980;SDS011;62348;51.412;5.436;2023-07-08T00:31:44;4.28;;;3.53;;
73980;SDS011;62348;51.412;5.436;2023-07-08T00:34:09;3.35;;;3.00;;
73980;SDS011;62348;51.412;5.436;2023-07-08T00:36:34;5.43;;;3.42;;
73980;SDS011;62348;51.412;5.436;2023-07-08T00:39:00;4.28;;;3.22;;
73980;SDS011;62348;51.412;5.436;2023-07-08T00:41:27;4.78;;;3.45;;
73980;SDS011;62348;51.412;5.436;2023-07-08T00:43:56;5.97;;;3.30;;
73980;SDS011;62348;51.412;5.436;2023-07-08T00:48:52;4.13;;;3.72;;
73980;SDS011;62348;51.412;5.436;2023-07-08T00:51:21;6.45;;;3.65;;
73980;SDS011;62348;51.412;5.436;2023-07-08T00:53:47;4.80;;;3.85;;
73980;SDS011;62348;51.412;5.436;2023-07-08T00:56:17;6.10;;;3.72;;
73980;SDS011;62348;51.412;5.436;2023-07-08T00:59:06;14.85;;;5.22;;
73980;SDS011;62348;51.412;5.436;2023-07-08T01:01:37;7.55;;;3.97;;
73980;SDS011;62348;51.412;5.436;2023-07-08T01:04:11;7.88;;;3.53;;
73980;SDS011;62348;51.412;5.436;2023-07-08T01:06:43;5.47;;;3.42;;
73980;SDS011;62348;51.412;5.436;2023-07-08T01:09:11;4.95;;;3.70;;
73980;SDS011;62348;51.412;5.436;2023-07-08T01:11:39;7.35;;;3.67;;
73980;SDS011;62348;51.412;5.436;2023-07-08T01:14:06;4.38;;;3.30;;
73980;SDS011;62348;51.412;5.436;2023-07-08T01:16:34;4.68;;;3.80;;
73980;SDS011;62348;51.412;5.436;2023-07-08T01:19:00;5.95;;;4.15;;
73980;SDS011;62348;51.412;5.436;2023-07-08T01:23:58;5.03;;;3.20;;
73980;SDS011;62348;51.412;5.436;2023-07-08T01:26:25;4.38;;;3.70;;
73980;SDS011;62348;51.412;5.436;2023-07-08T01:28:52;4.43;;;3.10;;
73980;SDS011;62348;51.412;5.436;2023-07-08T01:31:20;6.70;;;3.92;;
73980;SDS011;62348;51.412;5.436;2023-07-08T01:33:47;9.32;;;3.88;;
73980;SDS011;62348;51.412;5.436;2023-07-08T01:36:12;5.47;;;3.88;;
73980;SDS011;62348;51.412;5.436;2023-07-08T01:38:37;14.18;;;3.63;;
73980;SDS011;62348;51.412;5.436;2023-07-08T01:41:04;7.93;;;4.25;;
73980;SDS011;62348;51.412;5.436;2023-07-08T01:43:30;4.80;;;3.67;;
73980;SDS011;62348;51.412;5.436;2023-07-08T01:45:57;4.25;;;3.53;;
73980;SDS011;62348;51.412;5.436;2023-07-08T01:48:25;5.50;;;3.42;;
73980;SDS011;62348;51.412;5.436;2023-07-08T01:50:59;4.65;;;3.20;;
73980;SDS011;62348;51.412;5.436;2023-07-08T01:53:29;5.65;;;3.83;;
73980;SDS011;62348;51.412;5.436;2023-07-08T01:55:57;5.25;;;3.72;;
73980;SDS011;62348;51.412;5.436;2023-07-08T01:58:22;5.88;;;4.13;;
73980;SDS011;62348;51.412;5.436;2023-07-08T02:00:47;5.70;;;3.28;;
73980;SDS011;62348;51.412;5.436;2023-07-08T02:03:16;6.47;;;3.45;;
73980;SDS011;62348;51.412;5.436;2023-07-08T02:05:41;4.43;;;3.72;;
73980;SDS011;62348;51.412;5.436;2023-07-08T02:08:07;4.43;;;3.35;;
73980;SDS011;62348;51.412;5.436;2023-07-08T02:10:32;5.43;;;3.35;;
73980;SDS011;62348;51.412;5.436;2023-07-08T02:12:58;7.40;;;4.88;;
73980;SDS011;62348;51.412;5.436;2023-07-08T02:15:25;4.35;;;3.42;;
73980;SDS011;62348;51.412;5.436;2023-07-08T02:17:51;6.93;;;3.45;;
73980;SDS011;62348;51.412;5.436;2023-07-08T02:20:16;5.00;;;3.72;;
73980;SDS011;62348;51.412;5.436;2023-07-08T02:22:42;5.93;;;3.40;;
73980;SDS011;62348;51.412;5.436;2023-07-08T02:25:07;5.70;;;3.47;;
73980;SDS011;62348;51.412;5.436;2023-07-08T02:27:34;5.93;;;3.65;;
73980;SDS011;62348;51.412;5.436;2023-07-08T02:30:00;5.65;;;3.35;;
73980;SDS011;62348;51.412;5.436;2023-07-08T02:32:26;6.45;;;4.20;;
73980;SDS011;62348;51.412;5.436;2023-07-08T02:34:52;6.85;;;4.00;;
73980;SDS011;62348;51.412;5.436;2023-07-08T02:37:18;5.22;;;3.80;;
73980;SDS011;62348;51.412;5.436;2023-07-08T02:39:43;5.57;;;3.78;;
73980;SDS011;62348;51.412;5.436;2023-07-08T02:42:09;5.88;;;3.58;;
73980;SDS011;62348;51.412;5.436;2023-07-08T02:44:34;5.47;;;4.07;;
73980;SDS011;62348;51.412;5.436;2023-07-08T02:46:59;6.82;;;4.47;;
73980;SDS011;62348;51.412;5.436;2023-07-08T02:49:25;6.28;;;3.63;;
73980;SDS011;62348;51.412;5.436;2023-07-08T02:51:51;10.73;;;4.25;;
73980;SDS011;62348;51.412;5.436;2023-07-08T02:54:17;4.65;;;3.65;;
73980;SDS011;62348;51.412;5.436;2023-07-08T02:56:43;9.90;;;3.90;;
73980;SDS011;62348;51.412;5.436;2023-07-08T02:59:08;8.77;;;4.07;;
73980;SDS011;62348;51.412;5.436;2023-07-08T03:01:34;5.13;;;4.03;;
73980;SDS011;62348;51.412;5.436;2023-07-08T03:04:06;4.68;;;4.22;;
73980;SDS011;62348;51.412;5.436;2023-07-08T03:06:47;7.33;;;4.77;;
73980;SDS011;62348;51.412;5.436;2023-07-08T03:09:15;8.48;;;4.22;;
73980;SDS011;62348;51.412;5.436;2023-07-08T03:11:40;6.05;;;4.50;;
73980;SDS011;62348;51.412;5.436;2023-07-08T03:14:06;8.88;;;4.70;;
73980;SDS011;62348;51.412;5.436;2023-07-08T03:16:31;5.75;;;4.28;;
73980;SDS011;62348;51.412;5.436;2023-07-08T03:18:57;7.18;;;5.20;;
73980;SDS011;62348;51.412;5.436;2023-07-08T03:21:22;8.68;;;4.50;;
73980;SDS011;62348;51.412;5.436;2023-07-08T03:23:48;9.25;;;4.57;;
73980;SDS011;62348;51.412;5.436;2023-07-08T03:26:16;6.53;;;4.63;;
73980;SDS011;62348;51.412;5.436;2023-07-08T03:28:49;7.47;;;3.88;;
73980;SDS011;62348;51.412;5.436;2023-07-08T03:31:15;7.60;;;3.83;;
73980;SDS011;62348;51.412;5.436;2023-07-08T03:33:41;6.55;;;4.15;;
73980;SDS011;62348;51.412;5.436;2023-07-08T03:36:13;5.35;;;4.35;;
73980;SDS011;62348;51.412;5.436;2023-07-08T03:38:51;4.15;;;3.70;;
73980;SDS011;62348;51.412;5.436;2023-07-08T03:41:18;6.75;;;4.45;;
73980;SDS011;62348;51.412;5.436;2023-07-08T03:43:43;4.90;;;4.32;;
73980;SDS011;62348;51.412;5.436;2023-07-08T03:46:12;6.50;;;4.38;;
73980;SDS011;62348;51.412;5.436;2023-07-08T03:48:41;6.22;;;4.20;;
73980;SDS011;62348;51.412;5.436;2023-07-08T03:51:21;7.38;;;4.18;;
73980;SDS011;62348;51.412;5.436;2023-07-08T03:53:48;7.55;;;4.22;;
73980;SDS011;62348;51.412;5.436;2023-07-08T03:56:13;5.43;;;4.00;;
73980;SDS011;62348;51.412;5.436;2023-07-08T03:58:39;5.65;;;4.10;;
73980;SDS011;62348;51.412;5.436;2023-07-08T04:01:04;5.90;;;4.20;;
73980;SDS011;62348;51.412;5.436;2023-07-08T04:03:34;6.47;;;4.60;;
73980;SDS011;62348;51.412;5.436;2023-07-08T04:06:00;4.90;;;3.92;;
73980;SDS011;62348;51.412;5.436;2023-07-08T04:08:26;4.63;;;3.88;;
73980;SDS011;62348;51.412;5.436;2023-07-08T04:10:51;6.40;;;4.40;;
73980;SDS011;62348;51.412;5.436;2023-07-08T04:13:16;6.30;;;4.78;;
73980;SDS011;62348;51.412;5.436;2023-07-08T04:15:42;5.95;;;4.32;;
73980;SDS011;62348;51.412;5.436;2023-07-08T04:18:07;5.57;;;4.55;;
73980;SDS011;62348;51.412;5.436;2023-07-08T04:20:32;7.60;;;4.85;;
73980;SDS011;62348;51.412;5.436;2023-07-08T04:22:58;5.88;;;4.38;;
73980;SDS011;62348;51.412;5.436;2023-07-08T04:25:23;5.30;;;4.50;;
73980;SDS011;62348;51.412;5.436;2023-07-08T04:27:49;7.32;;;4.93;;
73980;SDS011;62348;51.412;5.436;2023-07-08T04:30:19;6.25;;;4.85;;
73980;SDS011;62348;51.412;5.436;2023-07-08T04:32:49;6.30;;;4.68;;
73980;SDS011;62348;51.412;5.436;2023-07-08T04:35:15;7.38;;;4.63;;
73980;SDS011;62348;51.412;5.436;2023-07-08T04:37:40;6.45;;;5.57;;
73980;SDS011;62348;51.412;5.436;2023-07-08T04:40:09;8.30;;;4.55;;
73980;SDS011;62348;51.412;5.436;2023-07-08T04:42:41;7.70;;;5.00;;
73980;SDS011;62348;51.412;5.436;2023-07-08T04:45:07;8.50;;;5.38;;
73980;SDS011;62348;51.412;5.436;2023-07-08T04:47:32;6.57;;;4.95;;
73980;SDS011;62348;51.412;5.436;2023-07-08T04:49:59;8.60;;;5.00;;
73980;SDS011;62348;51.412;5.436;2023-07-08T04:52:24;8.85;;;5.43;;
73980;SDS011;62348;51.412;5.436;2023-07-08T04:54:49;6.75;;;4.90;;
73980;SDS011;62348;51.412;5.436;2023-07-08T04:57:15;7.57;;;4.85;;
73980;SDS011;62348;51.412;5.436;2023-07-08T04:59:41;6.22;;;4.97;;
73980;SDS011;62348;51.412;5.436;2023-07-08T05:02:07;8.07;;;5.50;;
73980;SDS011;62348;51.412;5.436;2023-07-08T05:04:32;8.43;;;4.85;;
73980;SDS011;62348;51.412;5.436;2023-07-08T05:06:58;8.00;;;5.68;;
73980;SDS011;62348;51.412;5.436;2023-07-08T05:09:24;8.88;;;5.93;;
73980;SDS011;62348;51.412;5.436;2023-07-08T05:11:51;9.35;;;5.20;;
73980;SDS011;62348;51.412;5.436;2023-07-08T05:14:16;7.65;;;5.78;;
73980;SDS011;62348;51.412;5.436;2023-07-08T05:16:42;9.63;;;5.13;;
73980;SDS011;62348;51.412;5.436;2023-07-08T05:19:07;9.45;;;5.60;;
73980;SDS011;62348;51.412;5.436;2023-07-08T05:21:33;11.20;;;5.38;;
73980;SDS011;62348;51.412;5.436;2023-07-08T05:24:03;6.43;;;5.80;;
73980;SDS011;62348;51.412;5.436;2023-07-08T05:26:30;10.48;;;5.82;;
73980;SDS011;62348;51.412;5.436;2023-07-08T05:28:55;12.18;;;6.55;;
73980;SDS011;62348;51.412;5.436;2023-07-08T05:31:21;7.63;;;5.72;;
73980;SDS011;62348;51.412;5.436;2023-07-08T05:33:46;9.45;;;6.43;;
73980;SDS011;62348;51.412;5.436;2023-07-08T05:36:12;15.32;;;6.00;;
73980;SDS011;62348;51.412;5.436;2023-07-08T05:38:37;8.63;;;5.70;;
73980;SDS011;62348;51.412;5.436;2023-07-08T05:41:03;7.22;;;5.53;;
73980;SDS011;62348;51.412;5.436;2023-07-08T05:43:28;7.90;;;5.70;;
73980;SDS011;62348;51.412;5.436;2023-07-08T05:45:58;7.13;;;5.50;;
73980;SDS011;62348;51.412;5.436;2023-07-08T05:48:25;9.45;;;6.65;;
73980;SDS011;62348;51.412;5.436;2023-07-08T05:50:51;9.77;;;6.00;;
73980;SDS011;62348;51.412;5.436;2023-07-08T05:53:18;7.25;;;5.50;;
73980;SDS011;62348;51.412;5.436;2023-07-08T05:55:45;9.90;;;6.20;;
73980;SDS011;62348;51.412;5.436;2023-07-08T05:58:10;6.47;;;5.10;;
73980;SDS011;62348;51.412;5.436;2023-07-08T06:00:40;9.05;;;5.70;;
73980;SDS011;62348;51.412;5.436;2023-07-08T06:03:05;8.50;;;5.93;;
73980;SDS011;62348;51.412;5.436;2023-07-08T06:05:31;8.57;;;5.88;;
73980;SDS011;62348;51.412;5.436;2023-07-08T06:07:58;9.95;;;5.80;;
73980;SDS011;62348;51.412;5.436;2023-07-08T06:10:23;10.43;;;5.70;;
73980;SDS011;62348;51.412;5.436;2023-07-08T06:12:50;7.88;;;5.38;;
73980;SDS011;62348;51.412;5.436;2023-07-08T06:15:15;8.57;;;5.63;;
73980;SDS011;62348;51.412;5.436;2023-07-08T06:17:41;10.63;;;5.82;;
73980;SDS011;62348;51.412;5.436;2023-07-08T06:20:07;7.75;;;5.90;;
73980;SDS011;62348;51.412;5.436;2023-07-08T06:22:33;7.82;;;5.55;;
73980;SDS011;62348;51.412;5.436;2023-07-08T06:24:58;8.07;;;5.13;;
73980;SDS011;62348;51.412;5.436;2023-07-08T06:27:24;5.57;;;4.53;;
73980;SDS011;62348;51.412;5.436;2023-07-08T06:29:50;8.15;;;5.30;;
73980;SDS011;62348;51.412;5.436;2023-07-08T06:32:15;8.68;;;4.82;;
73980;SDS011;62348;51.412;5.436;2023-07-08T06:34:41;9.45;;;5.18;;
73980;SDS011;62348;51.412;5.436;2023-07-08T06:37:06;6.90;;;5.35;;
73980;SDS011;62348;51.412;5.436;2023-07-08T06:39:31;8.15;;;5.30;;
73980;SDS011;62348;51.412;5.436;2023-07-08T06:41:57;10.85;;;5.47;;
73980;SDS011;62348;51.412;5.436;2023-07-08T06:44:22;7.93;;;5.60;;
73980;SDS011;62348;51.412;5.436;2023-07-08T06:46:48;8.43;;;5.10;;
73980;SDS011;62348;51.412;5.436;2023-07-08T06:49:13;7.82;;;5.80;;
73980;SDS011;62348;51.412;5.436;2023-07-08T06:51:38;8.55;;;5.50;;
73980;SDS011;62348;51.412;5.436;2023-07-08T06:54:04;9.60;;;4.82;;
73980;SDS011;62348;51.412;5.436;2023-07-08T06:56:36;6.60;;;5.43;;
73980;SDS011;62348;51.412;5.436;2023-07-08T06:59:03;7.05;;;4.95;;
73980;SDS011;62348;51.412;5.436;2023-07-08T07:01:28;6.60;;;5.25;;
73980;SDS011;62348;51.412;5.436;2023-07-08T07:03:53;8.57;;;5.00;;
73980;SDS011;62348;51.412;5.436;2023-07-08T07:06:19;12.77;;;5.53;;
73980;SDS011;62348;51.412;5.436;2023-07-08T07:08:44;7.25;;;5.22;;
73980;SDS011;62348;51.412;5.436;2023-07-08T07:11:10;6.63;;;4.95;;
73980;SDS011;62348;51.412;5.436;2023-07-08T07:13:35;9.18;;;5.78;;
73980;SDS011;62348;51.412;5.436;2023-07-08T07:16:00;7.97;;;5.45;;
73980;SDS011;62348;51.412;5.436;2023-07-08T07:18:26;10.02;;;6.30;;
73980;SDS011;62348;51.412;5.436;2023-07-08T07:20:52;9.23;;;5.10;;
73980;SDS011;62348;51.412;5.436;2023-07-08T07:23:19;9.80;;;5.53;;
73980;SDS011;62348;51.412;5.436;2023-07-08T07:25:45;12.05;;;6.25;;
73980;SDS011;62348;51.412;5.436;2023-07-08T07:28:12;9.77;;;6.05;;
73980;SDS011;62348;51.412;5.436;2023-07-08T07:30:42;9.70;;;6.07;;
73980;SDS011;62348;51.412;5.436;2023-07-08T07:33:08;10.15;;;6.22;;
73980;SDS011;62348;51.412;5.436;2023-07-08T07:35:34;9.80;;;5.95;;
73980;SDS011;62348;51.412;5.436;2023-07-08T07:37:59;9.77;;;5.93;;
73980;SDS011;62348;51.412;5.436;2023-07-08T07:40:25;9.05;;;6.25;;
73980;SDS011;62348;51.412;5.436;2023-07-08T07:42:51;10.25;;;6.40;;
73980;SDS011;62348;51.412;5.436;2023-07-08T07:45:17;8.32;;;6.25;;
73980;SDS011;62348;51.412;5.436;2023-07-08T07:47:42;8.65;;;5.40;;
73980;SDS011;62348;51.412;5.436;2023-07-08T07:50:08;7.93;;;6.00;;
73980;SDS011;62348;51.412;5.436;2023-07-08T07:52:34;10.48;;;6.18;;
73980;SDS011;62348;51.412;5.436;2023-07-08T07:55:00;9.60;;;6.50;;
73980;SDS011;62348;51.412;5.436;2023-07-08T07:57:27;7.63;;;5.53;;
73980;SDS011;62348;51.412;5.436;2023-07-08T07:59:52;8.32;;;6.32;;
73980;SDS011;62348;51.412;5.436;2023-07-08T08:02:18;12.55;;;6.47;;
73980;SDS011;62348;51.412;5.436;2023-07-08T08:04:43;9.38;;;6.40;;
73980;SDS011;62348;51.412;5.436;2023-07-08T08:07:09;10.07;;;6.18;;
73980;SDS011;62348;51.412;5.436;2023-07-08T08:09:35;8.32;;;5.53;;
73980;SDS011;62348;51.412;5.436;2023-07-08T08:12:02;13.90;;;6.57;;
73980;SDS011;62348;51.412;5.436;2023-07-08T08:14:28;9.75;;;6.38;;
73980;SDS011;62348;51.412;5.436;2023-07-08T08:16:54;7.97;;;6.38;;
73980;SDS011;62348;51.412;5.436;2023-07-08T08:19:19;12.10;;;6.22;;
73980;SDS011;62348;51.412;5.436;2023-07-08T08:21:45;10.82;;;6.15;;
73980;SDS011;62348;51.412;5.436;2023-07-08T08:24:10;8.88;;;6.20;;
73980;SDS011;62348;51.412;5.436;2023-07-08T08:26:35;11.43;;;7.18;;
73980;SDS011;62348;51.412;5.436;2023-07-08T08:29:01;15.68;;;6.35;;
73980;SDS011;62348;51.412;5.436;2023-07-08T08:31:27;10.80;;;6.53;;
73980;SDS011;62348;51.412;5.436;2023-07-08T08:33:52;8.88;;;6.85;;
73980;SDS011;62348;51.412;5.436;2023-07-08T08:36:18;10.23;;;6.47;;
73980;SDS011;62348;51.412;5.436;2023-07-08T08:38:43;10.80;;;6.43;;
73980;SDS011;62348;51.412;5.436;2023-07-08T08:41:12;11.98;;;6.85;;
73980;SDS011;62348;51.412;5.436;2023-07-08T08:43:39;9.32;;;6.70;;
73980;SDS011;62348;51.412;5.436;2023-07-08T08:51:30;11.35;;;6.80;;
73980;SDS011;62348;51.412;5.436;2023-07-08T08:53:57;11.15;;;6.18;;
73980;SDS011;62348;51.412;5.436;2023-07-08T08:56:25;8.98;;;6.05;;
73980;SDS011;62348;51.412;5.436;2023-07-08T09:01:55;14.57;;;7.32;;
73980;SDS011;62348;51.412;5.436;2023-07-08T09:04:42;8.63;;;6.45;;
73980;SDS011;62348;51.412;5.436;2023-07-08T09:07:08;9.48;;;7.13;;
73980;SDS011;62348;51.412;5.436;2023-07-08T09:09:46;9.20;;;6.63;;
73980;SDS011;62348;51.412;5.436;2023-07-08T09:12:18;8.43;;;6.80;;
73980;SDS011;62348;51.412;5.436;2023-07-08T09:14:49;10.98;;;7.00;;
73980;SDS011;62348;51.412;5.436;2023-07-08T09:17:23;11.68;;;6.80;;
73980;SDS011;62348;51.412;5.436;2023-07-08T09:22:48;10.73;;;7.18;;
73980;SDS011;62348;51.412;5.436;2023-07-08T09:25:30;11.85;;;6.85;;
73980;SDS011;62348;51.412;5.436;2023-07-08T09:28:00;11.10;;;6.78;;
73980;SDS011;62348;51.412;5.436;2023-07-08T09:30:25;9.32;;;7.57;;
73980;SDS011;62348;51.412;5.436;2023-07-08T09:32:53;11.27;;;7.07;;
73980;SDS011;62348;51.412;5.436;2023-07-08T09:35:29;8.85;;;6.85;;
73980;SDS011;62348;51.412;5.436;2023-07-08T09:38:07;10.85;;;7.07;;
73980;SDS011;62348;51.412;5.436;2023-07-08T09:40:34;9.75;;;6.47;;
73980;SDS011;62348;51.412;5.436;2023-07-08T09:45:57;10.10;;;6.95;;
73980;SDS011;62348;51.412;5.436;2023-07-08T09:48:27;10.40;;;7.25;;
73980;SDS011;62348;51.412;5.436;2023-07-08T09:50:58;9.80;;;6.93;;
73980;SDS011;62348;51.412;5.436;2023-07-08T09:53:23;9.48;;;7.03;;
73980;SDS011;62348;51.412;5.436;2023-07-08T09:55:51;13.95;;;7.22;;
73980;SDS011;62348;51.412;5.436;2023-07-08T09:58:23;9.07;;;7.10;;
73980;SDS011;62348;51.412;5.436;2023-07-08T10:03:23;8.40;;;6.28;;
73980;SDS011;62348;51.412;5.436;2023-07-08T10:08:19;11.40;;;6.65;;
73980;SDS011;62348;51.412;5.436;2023-07-08T10:10:46;10.57;;;7.15;;
73980;SDS011;62348;51.412;5.436;2023-07-08T10:16:13;9.98;;;6.32;;
73980;SDS011;62348;51.412;5.436;2023-07-08T10:18:39;9.95;;;6.40;;
73980;SDS011;62348;51.412;5.436;2023-07-08T10:21:09;11.00;;;6.38;;
73980;SDS011;62348;51.412;5.436;2023-07-08T10:23:40;8.65;;;6.78;;
73980;SDS011;62348;51.412;5.436;2023-07-08T10:26:29;7.97;;;7.00;;
73980;SDS011;62348;51.412;5.436;2023-07-08T10:40:15;12.70;;;6.93;;
73980;SDS011;62348;51.412;5.436;2023-07-08T10:45:41;9.57;;;6.45;;
73980;SDS011;62348;51.412;5.436;2023-07-08T11:06:43;10.10;;;7.05;;
73980;SDS011;62348;51.412;5.436;2023-07-08T11:09:18;9.73;;;6.20;;
73980;SDS011;62348;51.412;5.436;2023-07-08T11:23:08;9.32;;;6.38;;
73980;SDS011;62348;51.412;5.436;2023-07-08T11:25:48;10.50;;;6.05;;
73980;SDS011;62348;51.412;5.436;2023-07-08T11:28:17;8.57;;;6.28;;
73980;SDS011;62348;51.412;5.436;2023-07-08T11:30:45;7.85;;;6.20;;
73980;SDS011;62348;51.412;5.436;2023-07-08T11:33:13;8.07;;;6.00;;
73980;SDS011;62348;51.412;5.436;2023-07-08T11:35:43;10.27;;;6.07;;
73980;SDS011;62348;51.412;5.436;2023-07-08T11:38:15;11.43;;;6.30;;
73980;SDS011;62348;51.412;5.436;2023-07-08T11:40:50;9.23;;;6.40;;
73980;SDS011;62348;51.412;5.436;2023-07-08T11:43:17;8.30;;;6.20;;
73980;SDS011;62348;51.412;5.436;2023-07-08T11:45:45;12.43;;;6.75;;
73980;SDS011;62348;51.412;5.436;2023-07-08T11:48:15;9.88;;;5.50;;
73980;SDS011;62348;51.412;5.436;2023-07-08T11:50:46;7.90;;;5.47;;
73980;SDS011;62348;51.412;5.436;2023-07-08T11:53:31;10.15;;;6.22;;
73980;SDS011;62348;51.412;5.436;2023-07-08T12:03:48;8.20;;;5.93;;
73980;SDS011;62348;51.412;5.436;2023-07-08T12:08:55;8.70;;;6.25;;
73980;SDS011;62348;51.412;5.436;2023-07-08T12:11:32;9.45;;;6.20;;
73980;SDS011;62348;51.412;5.436;2023-07-08T12:14:00;10.05;;;6.13;;
73980;SDS011;62348;51.412;5.436;2023-07-08T12:16:28;10.57;;;6.85;;
73980;SDS011;62348;51.412;5.436;2023-07-08T12:18:55;6.97;;;5.53;;
73980;SDS011;62348;51.412;5.436;2023-07-08T12:21:22;8.95;;;6.03;;
73980;SDS011;62348;51.412;5.436;2023-07-08T12:23:48;8.02;;;5.45;;
73980;SDS011;62348;51.412;5.436;2023-07-08T12:26:14;8.77;;;5.28;;
73980;SDS011;62348;51.412;5.436;2023-07-08T12:28:40;9.43;;;6.03;;
73980;SDS011;62348;51.412;5.436;2023-07-08T12:31:09;8.57;;;5.25;;
73980;SDS011;62348;51.412;5.436;2023-07-08T12:33:40;9.13;;;6.03;;
73980;SDS011;62348;51.412;5.436;2023-07-08T12:36:06;7.82;;;5.68;;
73980;SDS011;62348;51.412;5.436;2023-07-08T12:38:37;8.23;;;5.90;;
73980;SDS011;62348;51.412;5.436;2023-07-08T12:41:28;7.05;;;5.68;;
73980;SDS011;62348;51.412;5.436;2023-07-08T12:43:53;10.40;;;5.82;;
73980;SDS011;62348;51.412;5.436;2023-07-08T12:46:20;6.55;;;5.82;;
73980;SDS011;62348;51.412;5.436;2023-07-08T12:48:46;6.82;;;5.93;;
73980;SDS011;62348;51.412;5.436;2023-07-08T12:51:13;10.18;;;5.65;;
73980;SDS011;62348;51.412;5.436;2023-07-08T12:53:43;11.07;;;6.13;;
73980;SDS011;62348;51.412;5.436;2023-07-08T12:56:09;9.82;;;5.97;;
73980;SDS011;62348;51.412;5.436;2023-07-08T12:58:39;9.80;;;6.10;;
73980;SDS011;62348;51.412;5.436;2023-07-08T13:01:07;10.35;;;5.60;;
73980;SDS011;62348;51.412;5.436;2023-07-08T13:03:37;9.23;;;6.75;;
73980;SDS011;62348;51.412;5.436;2023-07-08T13:06:07;10.63;;;5.65;;
73980;SDS011;62348;51.412;5.436;2023-07-08T13:08:35;10.05;;;6.20;;
73980;SDS011;62348;51.412;5.436;2023-07-08T13:11:02;8.85;;;5.85;;
73980;SDS011;62348;51.412;5.436;2023-07-08T13:13:33;9.13;;;6.03;;
73980;SDS011;62348;51.412;5.436;2023-07-08T13:16:00;10.60;;;6.45;;
73980;SDS011;62348;51.412;5.436;2023-07-08T13:18:31;9.43;;;6.43;;
73980;SDS011;62348;51.412;5.436;2023-07-08T13:21:05;10.82;;;5.90;;
73980;SDS011;62348;51.412;5.436;2023-07-08T13:23:33;10.93;;;6.15;;
73980;SDS011;62348;51.412;5.436;2023-07-08T13:26:00;8.48;;;5.85;;
73980;SDS011;62348;51.412;5.436;2023-07-08T13:28:35;11.02;;;6.32;;
73980;SDS011;62348;51.412;5.436;2023-07-08T13:31:03;9.73;;;5.93;;
73980;SDS011;62348;51.412;5.436;2023-07-08T13:33:44;8.77;;;5.47;;
73980;SDS011;62348;51.412;5.436;2023-07-08T13:36:24;7.57;;;5.40;;
73980;SDS011;62348;51.412;5.436;2023-07-08T13:38:53;8.52;;;5.40;;
73980;SDS011;62348;51.412;5.436;2023-07-08T13:41:20;9.32;;;5.00;;
73980;SDS011;62348;51.412;5.436;2023-07-08T13:43:47;9.32;;;5.43;;
73980;SDS011;62348;51.412;5.436;2023-07-08T13:46:29;8.30;;;5.47;;
73980;SDS011;62348;51.412;5.436;2023-07-08T13:49:07;10.02;;;5.88;;
73980;SDS011;62348;51.412;5.436;2023-07-08T13:51:36;10.73;;;5.85;;
73980;SDS011;62348;51.412;5.436;2023-07-08T13:54:37;6.95;;;5.35;;
73980;SDS011;62348;51.412;5.436;2023-07-08T13:57:10;8.27;;;5.88;;
73980;SDS011;62348;51.412;5.436;2023-07-08T13:59:37;7.30;;;4.70;;
73980;SDS011;62348;51.412;5.436;2023-07-08T14:02:06;6.20;;;5.30;;
73980;SDS011;62348;51.412;5.436;2023-07-08T14:04:41;9.80;;;5.40;;
73980;SDS011;62348;51.412;5.436;2023-07-08T14:07:13;8.65;;;5.68;;
73980;SDS011;62348;51.412;5.436;2023-07-08T14:09:45;8.25;;;4.93;;
73980;SDS011;62348;51.412;5.436;2023-07-08T14:12:11;9.30;;;4.90;;
73980;SDS011;62348;51.412;5.436;2023-07-08T14:14:36;7.97;;;5.20;;
73980;SDS011;62348;51.412;5.436;2023-07-08T14:17:02;7.18;;;4.72;;
73980;SDS011;62348;51.412;5.436;2023-07-08T14:19:28;8.52;;;5.10;;
73980;SDS011;62348;51.412;5.436;2023-07-08T14:21:58;9.45;;;5.00;;
73980;SDS011;62348;51.412;5.436;2023-07-08T14:24:26;9.02;;;4.40;;
73980;SDS011;62348;51.412;5.436;2023-07-08T14:26:52;8.73;;;5.10;;
73980;SDS011;62348;51.412;5.436;2023-07-08T14:29:18;8.15;;;5.70;;
73980;SDS011;62348;51.412;5.436;2023-07-08T14:31:44;7.28;;;5.80;;
73980;SDS011;62348;51.412;5.436;2023-07-08T14:34:15;9.40;;;5.65;;
73980;SDS011;62348;51.412;5.436;2023-07-08T14:36:46;8.60;;;5.55;;
73980;SDS011;62348;51.412;5.436;2023-07-08T14:39:13;10.10;;;5.78;;
73980;SDS011;62348;51.412;5.436;2023-07-08T14:41:40;9.70;;;6.50;;
73980;SDS011;62348;51.412;5.436;2023-07-08T14:44:50;10.68;;;6.45;;
73980;SDS011;62348;51.412;5.436;2023-07-08T14:49:26;10.50;;;6.10;;
73980;SDS011;62348;51.412;5.436;2023-07-08T14:51:52;8.93;;;6.28;;
73980;SDS011;62348;51.412;5.436;2023-07-08T14:54:18;7.13;;;5.43;;
73980;SDS011;62348;51.412;5.436;2023-07-08T14:56:44;8.73;;;6.30;;
73980;SDS011;62348;51.412;5.436;2023-07-08T14:59:15;10.05;;;6.13;;
73980;SDS011;62348;51.412;5.436;2023-07-08T15:01:42;11.07;;;6.88;;
73980;SDS011;62348;51.412;5.436;2023-07-08T15:04:11;8.88;;;6.20;;
73980;SDS011;62348;51.412;5.436;2023-07-08T15:06:38;7.82;;;6.63;;
73980;SDS011;62348;51.412;5.436;2023-07-08T15:09:04;7.63;;;6.18;;
73980;SDS011;62348;51.412;5.436;2023-07-08T15:11:30;8.75;;;6.20;;
73980;SDS011;62348;51.412;5.436;2023-07-08T15:13:57;8.48;;;6.00;;
73980;SDS011;62348;51.412;5.436;2023-07-08T15:16:23;11.32;;;6.03;;
73980;SDS011;62348;51.412;5.436;2023-07-08T15:18:48;9.48;;;6.00;;
73980;SDS011;62348;51.412;5.436;2023-07-08T15:21:14;7.65;;;5.60;;
73980;SDS011;62348;51.412;5.436;2023-07-08T15:23:40;14.13;;;5.88;;
73980;SDS011;62348;51.412;5.436;2023-07-08T15:26:13;7.70;;;5.63;;
73980;SDS011;62348;51.412;5.436;2023-07-08T15:31:16;14.73;;;5.57;;
73980;SDS011;62348;51.412;5.436;2023-07-08T15:33:43;11.45;;;5.63;;
73980;SDS011;62348;51.412;5.436;2023-07-08T15:36:12;9.60;;;5.50;;
73980;SDS011;62348;51.412;5.436;2023-07-08T15:38:39;8.32;;;5.90;;
73980;SDS011;62348;51.412;5.436;2023-07-08T15:41:07;9.77;;;5.55;;
73980;SDS011;62348;51.412;5.436;2023-07-08T15:43:46;10.25;;;5.90;;
73980;SDS011;62348;51.412;5.436;2023-07-08T15:46:12;8.70;;;5.28;;
73980;SDS011;62348;51.412;5.436;2023-07-08T15:48:37;10.65;;;5.53;;
73980;SDS011;62348;51.412;5.436;2023-07-08T15:51:03;10.40;;;5.68;;
73980;SDS011;62348;51.412;5.436;2023-07-08T15:53:28;10.75;;;5.72;;
73980;SDS011;62348;51.412;5.436;2023-07-08T15:55:54;8.77;;;5.70;;
73980;SDS011;62348;51.412;5.436;2023-07-08T15:58:26;10.60;;;5.57;;
73980;SDS011;62348;51.412;5.436;2023-07-08T16:00:53;8.73;;;5.68;;
73980;SDS011;62348;51.412;5.436;2023-07-08T16:03:29;13.52;;;5.93;;
73980;SDS011;62348;51.412;5.436;2023-07-08T16:05:56;9.95;;;6.00;;
73980;SDS011;62348;51.412;5.436;2023-07-08T16:08:23;7.97;;;5.88;;
73980;SDS011;62348;51.412;5.436;2023-07-08T16:11:00;8.88;;;5.65;;
73980;SDS011;62348;51.412;5.436;2023-07-08T16:13:32;8.02;;;5.95;;
73980;SDS011;62348;51.412;5.436;2023-07-08T16:16:00;7.93;;;3.78;;
73980;SDS011;62348;51.412;5.436;2023-07-08T16:18:26;9.07;;;6.15;;